KICR

Winner Regional Airport

Winner, South Dakota, USA
METAR KICR 221853Z AUTO 35007KT 290V050 10SM CLR 18/M02 A3022 RMK AO2 SLP238 T01781017
Observed Flight Rules
Oct-22 @ 18:53 UTC (23 minutes ago) Visual Flight Rules
Wind Visibility Clouds
350° at 7 knots 10 miles
  • Clear skies
Temperatures Readings
Current 18°C / 64°F
Dewpoint -2°C / 28°F
Humidity 26%
Altimeter 30.22" Hg
Pressure 1023.8 hPa
Elevation 621
METAR KICR 221853Z AUTO 35007KT 290V050 10SM CLR 18/M02 A3022 RMK AO2 SLP238 T01781017
Observed Flight Rules
Oct-22 @ 18:53 UTC
(23 minutes ago)
VFR
Wind Visibility
350° at 7 knots 10 miles
Clouds
  • Clear skies
Temperature Dewpoint
18°C / 64°F -2°C / 28°F
Humidity Altimeter Pressure
26% 30.22" Hg 1023.8 hPa